sensor_id;sensor_type;location;lat;lon;timestamp;P1;durP1;ratioP1;P2;durP2;ratioP2
17858;SDS011;35426;30.698;104.050;2023-08-01T00:00:45;42.13;;;24.02;;
17858;SDS011;35426;30.698;104.050;2023-08-01T00:03:19;39.70;;;24.33;;
17858;SDS011;35426;30.698;104.050;2023-08-01T00:05:52;35.35;;;24.98;;
17858;SDS011;35426;30.698;104.050;2023-08-01T00:08:26;45.65;;;24.80;;
17858;SDS011;35426;30.698;104.050;2023-08-01T00:10:59;37.35;;;24.40;;
17858;SDS011;35426;30.698;104.050;2023-08-01T00:13:34;37.92;;;22.13;;
17858;SDS011;35426;30.698;104.050;2023-08-01T00:16:07;39.10;;;23.75;;
17858;SDS011;35426;30.698;104.050;2023-08-01T00:18:41;37.20;;;23.65;;
17858;SDS011;35426;30.698;104.050;2023-08-01T00:24:24;43.55;;;24.15;;
17858;SDS011;35426;30.698;104.050;2023-08-01T00:26:58;35.47;;;24.27;;
17858;SDS011;35426;30.698;104.050;2023-08-01T00:29:33;38.92;;;22.83;;
17858;SDS011;35426;30.698;104.050;2023-08-01T00:32:07;38.17;;;25.30;;
17858;SDS011;35426;30.698;104.050;2023-08-01T00:34:40;39.75;;;26.38;;
17858;SDS011;35426;30.698;104.050;2023-08-01T00:37:13;40.30;;;25.67;;
17858;SDS011;35426;30.698;104.050;2023-08-01T00:39:46;44.85;;;26.95;;
17858;SDS011;35426;30.698;104.050;2023-08-01T00:42:20;41.00;;;26.73;;
17858;SDS011;35426;30.698;104.050;2023-08-01T00:44:56;53.28;;;27.92;;
17858;SDS011;35426;30.698;104.050;2023-08-01T00:47:29;43.87;;;25.97;;
17858;SDS011;35426;30.698;104.050;2023-08-01T00:50:03;39.27;;;25.03;;
17858;SDS011;35426;30.698;104.050;2023-08-01T00:52:37;34.23;;;22.03;;
17858;SDS011;35426;30.698;104.050;2023-08-01T00:55:11;32.03;;;16.80;;
17858;SDS011;35426;30.698;104.050;2023-08-01T00:57:45;22.93;;;16.53;;
17858;SDS011;35426;30.698;104.050;2023-08-01T01:00:21;28.77;;;16.67;;
17858;SDS011;35426;30.698;104.050;2023-08-01T01:02:54;28.80;;;19.33;;
17858;SDS011;35426;30.698;104.050;2023-08-01T01:05:30;26.67;;;17.63;;
17858;SDS011;35426;30.698;104.050;2023-08-01T01:08:07;26.40;;;18.03;;
17858;SDS011;35426;30.698;104.050;2023-08-01T01:10:41;27.67;;;17.97;;
17858;SDS011;35426;30.698;104.050;2023-08-01T01:13:14;24.10;;;18.00;;
17858;SDS011;35426;30.698;104.050;2023-08-01T01:15:49;33.23;;;21.37;;
17858;SDS011;35426;30.698;104.050;2023-08-01T01:18:23;26.73;;;18.60;;
17858;SDS011;35426;30.698;104.050;2023-08-01T01:21:00;23.97;;;17.33;;
17858;SDS011;35426;30.698;104.050;2023-08-01T01:23:34;25.17;;;18.67;;
17858;SDS011;35426;30.698;104.050;2023-08-01T01:26:09;27.27;;;19.30;;
17858;SDS011;35426;30.698;104.050;2023-08-01T01:28:45;23.00;;;16.87;;
17858;SDS011;35426;30.698;104.050;2023-08-01T01:31:19;22.40;;;17.83;;
17858;SDS011;35426;30.698;104.050;2023-08-01T01:33:54;25.97;;;17.53;;
17858;SDS011;35426;30.698;104.050;2023-08-01T01:36:31;23.27;;;17.60;;
17858;SDS011;35426;30.698;104.050;2023-08-01T01:39:05;23.43;;;17.23;;
17858;SDS011;35426;30.698;104.050;2023-08-01T01:41:39;23.63;;;17.37;;
17858;SDS011;35426;30.698;104.050;2023-08-01T01:44:12;20.77;;;16.97;;
17858;SDS011;35426;30.698;104.050;2023-08-01T01:46:45;32.37;;;17.50;;
17858;SDS011;35426;30.698;104.050;2023-08-01T01:49:19;23.23;;;17.77;;
17858;SDS011;35426;30.698;104.050;2023-08-01T01:51:56;22.20;;;16.10;;
17858;SDS011;35426;30.698;104.050;2023-08-01T01:54:28;22.53;;;14.53;;
17858;SDS011;35426;30.698;104.050;2023-08-01T01:57:02;21.00;;;14.50;;
17858;SDS011;35426;30.698;104.050;2023-08-01T01:59:35;18.40;;;14.63;;
17858;SDS011;35426;30.698;104.050;2023-08-01T02:02:09;18.70;;;14.37;;
17858;SDS011;35426;30.698;104.050;2023-08-01T02:04:44;16.90;;;14.10;;
17858;SDS011;35426;30.698;104.050;2023-08-01T02:07:19;17.67;;;13.23;;
17858;SDS011;35426;30.698;104.050;2023-08-01T02:09:53;15.57;;;12.73;;
17858;SDS011;35426;30.698;104.050;2023-08-01T02:12:28;18.63;;;13.77;;
17858;SDS011;35426;30.698;104.050;2023-08-01T02:15:05;16.90;;;13.30;;
17858;SDS011;35426;30.698;104.050;2023-08-01T02:17:39;18.50;;;14.70;;
17858;SDS011;35426;30.698;104.050;2023-08-01T02:20:13;16.88;;;12.18;;
17858;SDS011;35426;30.698;104.050;2023-08-01T02:22:48;19.85;;;11.15;;
17858;SDS011;35426;30.698;104.050;2023-08-01T02:25:21;14.27;;;11.23;;
17858;SDS011;35426;30.698;104.050;2023-08-01T02:27:55;16.13;;;11.40;;
17858;SDS011;35426;30.698;104.050;2023-08-01T02:30:29;15.82;;;12.38;;
17858;SDS011;35426;30.698;104.050;2023-08-01T02:33:03;19.40;;;13.85;;
17858;SDS011;35426;30.698;104.050;2023-08-01T02:35:36;24.95;;;14.88;;
17858;SDS011;35426;30.698;104.050;2023-08-01T02:38:13;23.80;;;15.38;;
17858;SDS011;35426;30.698;104.050;2023-08-01T02:40:47;19.05;;;13.30;;
17858;SDS011;35426;30.698;104.050;2023-08-01T02:43:20;22.75;;;13.85;;
17858;SDS011;35426;30.698;104.050;2023-08-01T02:45:54;21.77;;;13.20;;
17858;SDS011;35426;30.698;104.050;2023-08-01T02:48:29;21.30;;;13.45;;
17858;SDS011;35426;30.698;104.050;2023-08-01T02:51:04;23.02;;;13.05;;
17858;SDS011;35426;30.698;104.050;2023-08-01T02:53:41;23.48;;;12.60;;
17858;SDS011;35426;30.698;104.050;2023-08-01T02:56:14;22.10;;;13.00;;
17858;SDS011;35426;30.698;104.050;2023-08-01T02:58:48;19.63;;;13.65;;
17858;SDS011;35426;30.698;104.050;2023-08-01T03:01:22;21.25;;;12.38;;
17858;SDS011;35426;30.698;104.050;2023-08-01T03:03:56;22.52;;;13.35;;
17858;SDS011;35426;30.698;104.050;2023-08-01T03:06:30;22.73;;;12.88;;
17858;SDS011;35426;30.698;104.050;2023-08-01T03:09:06;20.83;;;12.45;;
17858;SDS011;35426;30.698;104.050;2023-08-01T03:11:40;22.60;;;12.85;;
17858;SDS011;35426;30.698;104.050;2023-08-01T03:14:13;18.40;;;11.70;;
17858;SDS011;35426;30.698;104.050;2023-08-01T03:16:47;18.73;;;11.48;;
17858;SDS011;35426;30.698;104.050;2023-08-01T03:19:21;20.35;;;10.68;;
17858;SDS011;35426;30.698;104.050;2023-08-01T03:21:55;15.95;;;10.57;;
17858;SDS011;35426;30.698;104.050;2023-08-01T03:24:31;14.80;;;10.63;;
17858;SDS011;35426;30.698;104.050;2023-08-01T03:27:07;16.70;;;11.10;;
17858;SDS011;35426;30.698;104.050;2023-08-01T03:29:40;16.15;;;11.90;;
17858;SDS011;35426;30.698;104.050;2023-08-01T03:32:14;21.90;;;13.70;;
17858;SDS011;35426;30.698;104.050;2023-08-01T03:34:48;19.80;;;13.75;;
17858;SDS011;35426;30.698;104.050;2023-08-01T03:37:21;20.95;;;13.88;;
17858;SDS011;35426;30.698;104.050;2023-08-01T03:39:57;20.73;;;14.20;;
17858;SDS011;35426;30.698;104.050;2023-08-01T03:42:31;26.13;;;15.70;;
17858;SDS011;35426;30.698;104.050;2023-08-01T03:45:06;27.38;;;16.55;;
17858;SDS011;35426;30.698;104.050;2023-08-01T03:47:41;23.48;;;14.60;;
17858;SDS011;35426;30.698;104.050;2023-08-01T03:50:15;22.05;;;15.48;;
17858;SDS011;35426;30.698;104.050;2023-08-01T03:52:50;21.92;;;13.63;;
17858;SDS011;35426;30.698;104.050;2023-08-01T03:55:26;22.67;;;14.77;;
17858;SDS011;35426;30.698;104.050;2023-08-01T03:57:59;24.08;;;15.90;;
17858;SDS011;35426;30.698;104.050;2023-08-01T04:00:33;28.77;;;15.65;;
17858;SDS011;35426;30.698;104.050;2023-08-01T04:03:07;21.15;;;15.55;;
17858;SDS011;35426;30.698;104.050;2023-08-01T04:05:40;22.48;;;14.75;;
17858;SDS011;35426;30.698;104.050;2023-08-01T04:08:13;21.90;;;16.13;;
17858;SDS011;35426;30.698;104.050;2023-08-01T04:10:49;27.70;;;16.45;;
17858;SDS011;35426;30.698;104.050;2023-08-01T04:13:22;25.05;;;17.83;;
17858;SDS011;35426;30.698;104.050;2023-08-01T04:15:56;24.00;;;18.33;;
17858;SDS011;35426;30.698;104.050;2023-08-01T04:18:30;24.50;;;16.33;;
17858;SDS011;35426;30.698;104.050;2023-08-01T04:21:04;20.48;;;15.80;;
17858;SDS011;35426;30.698;104.050;2023-08-01T04:23:39;28.48;;;18.35;;
17858;SDS011;35426;30.698;104.050;2023-08-01T04:26:14;24.05;;;18.23;;
17858;SDS011;35426;30.698;104.050;2023-08-01T04:28:50;29.33;;;21.30;;
17858;SDS011;35426;30.698;104.050;2023-08-01T04:31:24;39.58;;;21.85;;
17858;SDS011;35426;30.698;104.050;2023-08-01T04:33:58;31.65;;;22.52;;
17858;SDS011;35426;30.698;104.050;2023-08-01T04:36:47;25.95;;;19.05;;
17858;SDS011;35426;30.698;104.050;2023-08-01T04:39:21;28.15;;;20.30;;
17858;SDS011;35426;30.698;104.050;2023-08-01T04:42:12;26.55;;;17.15;;
17858;SDS011;35426;30.698;104.050;2023-08-01T04:44:46;24.27;;;18.95;;
17858;SDS011;35426;30.698;104.050;2023-08-01T04:47:21;30.30;;;20.38;;
17858;SDS011;35426;30.698;104.050;2023-08-01T04:49:55;29.83;;;19.90;;
17858;SDS011;35426;30.698;104.050;2023-08-01T04:52:29;29.90;;;20.38;;
17858;SDS011;35426;30.698;104.050;2023-08-01T04:55:03;25.00;;;17.40;;
17858;SDS011;35426;30.698;104.050;2023-08-01T04:57:41;31.83;;;21.65;;
17858;SDS011;35426;30.698;104.050;2023-08-01T05:00:14;31.17;;;20.27;;
17858;SDS011;35426;30.698;104.050;2023-08-01T05:02:48;25.33;;;16.55;;
17858;SDS011;35426;30.698;104.050;2023-08-01T05:05:22;23.08;;;16.02;;
17858;SDS011;35426;30.698;104.050;2023-08-01T05:07:55;27.85;;;19.38;;
17858;SDS011;35426;30.698;104.050;2023-08-01T05:10:29;22.25;;;15.98;;
17858;SDS011;35426;30.698;104.050;2023-08-01T05:13:06;22.55;;;17.88;;
17858;SDS011;35426;30.698;104.050;2023-08-01T05:15:40;25.48;;;19.05;;
17858;SDS011;35426;30.698;104.050;2023-08-01T05:18:34;24.55;;;18.02;;
17858;SDS011;35426;30.698;104.050;2023-08-01T05:21:08;31.58;;;21.08;;
17858;SDS011;35426;30.698;104.050;2023-08-01T05:23:42;26.75;;;17.95;;
17858;SDS011;35426;30.698;104.050;2023-08-01T05:26:15;23.30;;;17.48;;
17858;SDS011;35426;30.698;104.050;2023-08-01T05:28:50;26.45;;;18.77;;
17858;SDS011;35426;30.698;104.050;2023-08-01T05:31:24;24.98;;;18.95;;
17858;SDS011;35426;30.698;104.050;2023-08-01T05:33:57;26.48;;;20.50;;
17858;SDS011;35426;30.698;104.050;2023-08-01T05:36:32;28.23;;;21.77;;
17858;SDS011;35426;30.698;104.050;2023-08-01T05:39:06;25.50;;;19.00;;
17858;SDS011;35426;30.698;104.050;2023-08-01T05:41:40;27.17;;;18.85;;
17858;SDS011;35426;30.698;104.050;2023-08-01T05:44:16;23.65;;;17.85;;
17858;SDS011;35426;30.698;104.050;2023-08-01T05:46:49;25.40;;;18.75;;
17858;SDS011;35426;30.698;104.050;2023-08-01T05:49:23;25.50;;;19.13;;
17858;SDS011;35426;30.698;104.050;2023-08-01T05:51:57;21.50;;;17.13;;
17858;SDS011;35426;30.698;104.050;2023-08-01T05:54:33;22.92;;;16.67;;
17858;SDS011;35426;30.698;104.050;2023-08-01T05:57:23;21.90;;;16.67;;
17858;SDS011;35426;30.698;104.050;2023-08-01T06:00:00;25.77;;;19.67;;
17858;SDS011;35426;30.698;104.050;2023-08-01T06:02:38;20.85;;;16.55;;
17858;SDS011;35426;30.698;104.050;2023-08-01T06:05:13;20.85;;;15.82;;
17858;SDS011;35426;30.698;104.050;2023-08-01T06:07:47;18.55;;;14.60;;
17858;SDS011;35426;30.698;104.050;2023-08-01T06:10:21;22.52;;;15.60;;
17858;SDS011;35426;30.698;104.050;2023-08-01T06:12:56;21.15;;;15.88;;
17858;SDS011;35426;30.698;104.050;2023-08-01T06:15:32;21.42;;;15.10;;
17858;SDS011;35426;30.698;104.050;2023-08-01T06:18:06;22.73;;;15.00;;
17858;SDS011;35426;30.698;104.050;2023-08-01T06:20:40;18.80;;;15.82;;
17858;SDS011;35426;30.698;104.050;2023-08-01T06:23:18;21.00;;;15.27;;
17858;SDS011;35426;30.698;104.050;2023-08-01T06:25:52;19.85;;;15.82;;
17858;SDS011;35426;30.698;104.050;2023-08-01T06:28:26;21.63;;;16.55;;
17858;SDS011;35426;30.698;104.050;2023-08-01T06:31:02;21.25;;;16.83;;
17858;SDS011;35426;30.698;104.050;2023-08-01T06:33:35;20.85;;;16.55;;
17858;SDS011;35426;30.698;104.050;2023-08-01T06:36:09;24.45;;;18.70;;
17858;SDS011;35426;30.698;104.050;2023-08-01T06:38:44;21.55;;;18.10;;
17858;SDS011;35426;30.698;104.050;2023-08-01T06:41:17;25.98;;;19.65;;
17858;SDS011;35426;30.698;104.050;2023-08-01T06:43:52;24.17;;;18.80;;
17858;SDS011;35426;30.698;104.050;2023-08-01T06:46:27;27.33;;;20.05;;
17858;SDS011;35426;30.698;104.050;2023-08-01T06:49:02;25.95;;;18.90;;
17858;SDS011;35426;30.698;104.050;2023-08-01T06:51:36;29.90;;;19.05;;
17858;SDS011;35426;30.698;104.050;2023-08-01T06:54:10;21.48;;;17.48;;
17858;SDS011;35426;30.698;104.050;2023-08-01T06:56:45;25.20;;;17.95;;
17858;SDS011;35426;30.698;104.050;2023-08-01T06:59:19;23.00;;;18.30;;
17858;SDS011;35426;30.698;104.050;2023-08-01T07:01:55;23.17;;;18.80;;
17858;SDS011;35426;30.698;104.050;2023-08-01T07:04:29;22.90;;;18.00;;
17858;SDS011;35426;30.698;104.050;2023-08-01T07:07:04;25.00;;;19.88;;
17858;SDS011;35426;30.698;104.050;2023-08-01T07:09:40;20.55;;;16.70;;
17858;SDS011;35426;30.698;104.050;2023-08-01T07:12:14;24.42;;;19.00;;
17858;SDS011;35426;30.698;104.050;2023-08-01T07:14:48;20.52;;;17.25;;
17858;SDS011;35426;30.698;104.050;2023-08-01T07:17:43;26.13;;;20.95;;
17858;SDS011;35426;30.698;104.050;2023-08-01T07:20:20;25.02;;;20.15;;
17858;SDS011;35426;30.698;104.050;2023-08-01T07:22:54;29.63;;;21.67;;
17858;SDS011;35426;30.698;104.050;2023-08-01T07:25:27;22.45;;;18.17;;
17858;SDS011;35426;30.698;104.050;2023-08-01T07:28:02;23.30;;;18.40;;
17858;SDS011;35426;30.698;104.050;2023-08-01T07:30:36;21.77;;;17.58;;
17858;SDS011;35426;30.698;104.050;2023-08-01T07:33:11;21.65;;;16.42;;
17858;SDS011;35426;30.698;104.050;2023-08-01T07:35:45;25.63;;;18.20;;
17858;SDS011;35426;30.698;104.050;2023-08-01T07:38:19;25.20;;;18.10;;
17858;SDS011;35426;30.698;104.050;2023-08-01T07:40:52;21.42;;;17.05;;
17858;SDS011;35426;30.698;104.050;2023-08-01T07:43:26;22.67;;;17.75;;
17858;SDS011;35426;30.698;104.050;2023-08-01T07:46:03;21.70;;;17.95;;
17858;SDS011;35426;30.698;104.050;2023-08-01T07:48:40;22.33;;;18.42;;
17858;SDS011;35426;30.698;104.050;2023-08-01T07:51:13;21.27;;;18.02;;
17858;SDS011;35426;30.698;104.050;2023-08-01T07:53:51;22.65;;;16.92;;
17858;SDS011;35426;30.698;104.050;2023-08-01T07:56:25;20.70;;;15.82;;
17858;SDS011;35426;30.698;104.050;2023-08-01T07:58:59;22.38;;;18.20;;
17858;SDS011;35426;30.698;104.050;2023-08-01T08:01:33;23.23;;;17.40;;
17858;SDS011;35426;30.698;104.050;2023-08-01T08:04:11;18.10;;;16.10;;
17858;SDS011;35426;30.698;104.050;2023-08-01T08:06:44;20.90;;;16.88;;
17858;SDS011;35426;30.698;104.050;2023-08-01T08:09:19;20.85;;;16.73;;
17858;SDS011;35426;30.698;104.050;2023-08-01T08:11:53;21.42;;;16.58;;
17858;SDS011;35426;30.698;104.050;2023-08-01T08:14:28;21.75;;;16.10;;
17858;SDS011;35426;30.698;104.050;2023-08-01T08:17:02;19.35;;;17.00;;
17858;SDS011;35426;30.698;104.050;2023-08-01T08:19:38;18.73;;;15.52;;
17858;SDS011;35426;30.698;104.050;2023-08-01T08:22:12;22.85;;;15.55;;
17858;SDS011;35426;30.698;104.050;2023-08-01T08:24:50;20.08;;;16.33;;
17858;SDS011;35426;30.698;104.050;2023-08-01T08:27:24;18.75;;;14.98;;
17858;SDS011;35426;30.698;104.050;2023-08-01T08:29:58;18.77;;;14.93;;
17858;SDS011;35426;30.698;104.050;2023-08-01T08:32:32;21.20;;;15.35;;
17858;SDS011;35426;30.698;104.050;2023-08-01T08:35:08;16.63;;;14.85;;
17858;SDS011;35426;30.698;104.050;2023-08-01T08:37:41;18.23;;;16.17;;
17858;SDS011;35426;30.698;104.050;2023-08-01T08:40:15;19.85;;;15.52;;
17858;SDS011;35426;30.698;104.050;2023-08-01T08:42:52;25.10;;;18.60;;
17858;SDS011;35426;30.698;104.050;2023-08-01T08:45:26;19.95;;;15.82;;
17858;SDS011;35426;30.698;104.050;2023-08-01T08:48:06;23.25;;;16.80;;
17858;SDS011;35426;30.698;104.050;2023-08-01T08:50:46;19.40;;;15.93;;
17858;SDS011;35426;30.698;104.050;2023-08-01T08:53:21;19.83;;;14.98;;
17858;SDS011;35426;30.698;104.050;2023-08-01T08:55:57;19.27;;;15.90;;
17858;SDS011;35426;30.698;104.050;2023-08-01T08:58:32;18.15;;;15.75;;
17858;SDS011;35426;30.698;104.050;2023-08-01T09:01:08;22.23;;;15.85;;
17858;SDS011;35426;30.698;104.050;2023-08-01T09:03:44;19.65;;;15.10;;
17858;SDS011;35426;30.698;104.050;2023-08-01T09:06:21;19.52;;;14.10;;
17858;SDS011;35426;30.698;104.050;2023-08-01T09:09:01;15.93;;;14.25;;
17858;SDS011;35426;30.698;104.050;2023-08-01T09:11:39;17.13;;;15.13;;
17858;SDS011;35426;30.698;104.050;2023-08-01T09:14:18;17.42;;;14.50;;
17858;SDS011;35426;30.698;104.050;2023-08-01T09:16:52;19.90;;;15.02;;
17858;SDS011;35426;30.698;104.050;2023-08-01T09:19:26;17.85;;;14.80;;
17858;SDS011;35426;30.698;104.050;2023-08-01T09:22:01;18.25;;;15.18;;
17858;SDS011;35426;30.698;104.050;2023-08-01T09:24:50;17.70;;;15.05;;
17858;SDS011;35426;30.698;104.050;2023-08-01T09:27:32;20.48;;;15.77;;
17858;SDS011;35426;30.698;104.050;2023-08-01T09:30:07;17.60;;;15.23;;
17858;SDS011;35426;30.698;104.050;2023-08-01T09:32:51;19.42;;;14.77;;
17858;SDS011;35426;30.698;104.050;2023-08-01T09:35:24;17.75;;;13.88;;
17858;SDS011;35426;30.698;104.050;2023-08-01T09:38:02;18.02;;;14.90;;
17858;SDS011;35426;30.698;104.050;2023-08-01T09:40:38;18.48;;;14.55;;
17858;SDS011;35426;30.698;104.050;2023-08-01T09:43:13;17.77;;;14.48;;
17858;SDS011;35426;30.698;104.050;2023-08-01T09:45:50;20.55;;;15.02;;
17858;SDS011;35426;30.698;104.050;2023-08-01T09:48:25;20.33;;;15.00;;
17858;SDS011;35426;30.698;104.050;2023-08-01T09:51:05;21.92;;;15.95;;
17858;SDS011;35426;30.698;104.050;2023-08-01T09:53:48;19.85;;;15.70;;
17858;SDS011;35426;30.698;104.050;2023-08-01T09:56:23;17.98;;;14.82;;
17858;SDS011;35426;30.698;104.050;2023-08-01T09:58:58;17.48;;;14.90;;
17858;SDS011;35426;30.698;104.050;2023-08-01T10:01:33;20.83;;;15.40;;
17858;SDS011;35426;30.698;104.050;2023-08-01T10:04:08;19.85;;;15.05;;
17858;SDS011;35426;30.698;104.050;2023-08-01T10:06:43;17.83;;;12.98;;
17858;SDS011;35426;30.698;104.050;2023-08-01T10:09:20;13.63;;;12.10;;
17858;SDS011;35426;30.698;104.050;2023-08-01T10:11:56;23.85;;;12.75;;
17858;SDS011;35426;30.698;104.050;2023-08-01T10:14:30;14.18;;;12.68;;
17858;SDS011;35426;30.698;104.050;2023-08-01T10:17:06;15.93;;;13.25;;
17858;SDS011;35426;30.698;104.050;2023-08-01T10:19:42;17.08;;;13.10;;
17858;SDS011;35426;30.698;104.050;2023-08-01T10:22:17;17.13;;;13.10;;
17858;SDS011;35426;30.698;104.050;2023-08-01T10:24:54;15.52;;;13.20;;
17858;SDS011;35426;30.698;104.050;2023-08-01T10:27:28;15.10;;;12.80;;
17858;SDS011;35426;30.698;104.050;2023-08-01T10:30:03;19.85;;;13.30;;
17858;SDS011;35426;30.698;104.050;2023-08-01T10:32:39;16.63;;;13.60;;
17858;SDS011;35426;30.698;104.050;2023-08-01T10:35:13;17.55;;;13.90;;
17858;SDS011;35426;30.698;104.050;2023-08-01T10:37:47;16.90;;;13.32;;
17858;SDS011;35426;30.698;104.050;2023-08-01T10:40:22;18.67;;;13.63;;
17858;SDS011;35426;30.698;104.050;2023-08-01T10:43:06;17.15;;;13.77;;
17858;SDS011;35426;30.698;104.050;2023-08-01T10:46:13;17.42;;;13.73;;
17858;SDS011;35426;30.698;104.050;2023-08-01T10:48:50;19.65;;;13.35;;
17858;SDS011;35426;30.698;104.050;2023-08-01T10:51:23;20.90;;;14.40;;
17858;SDS011;35426;30.698;104.050;2023-08-01T10:54:12;17.17;;;13.50;;
17858;SDS011;35426;30.698;104.050;2023-08-01T10:56:54;17.92;;;14.35;;
17858;SDS011;35426;30.698;104.050;2023-08-01T10:59:29;19.77;;;16.30;;
17858;SDS011;35426;30.698;104.050;2023-08-01T11:02:02;24.35;;;16.75;;
17858;SDS011;35426;30.698;104.050;2023-08-01T11:04:36;21.00;;;15.77;;
17858;SDS011;35426;30.698;104.050;2023-08-01T11:07:11;20.15;;;15.65;;
17858;SDS011;35426;30.698;104.050;2023-08-01T11:09:45;23.25;;;16.58;;
17858;SDS011;35426;30.698;104.050;2023-08-01T11:12:21;24.10;;;15.40;;
17858;SDS011;35426;30.698;104.050;2023-08-01T11:14:58;23.30;;;15.75;;
17858;SDS011;35426;30.698;104.050;2023-08-01T11:17:34;19.95;;;14.20;;
17858;SDS011;35426;30.698;104.050;2023-08-01T11:20:08;21.40;;;14.23;;
17858;SDS011;35426;30.698;104.050;2023-08-01T11:22:50;18.27;;;13.93;;
17858;SDS011;35426;30.698;104.050;2023-08-01T11:25:32;19.42;;;13.43;;
17858;SDS011;35426;30.698;104.050;2023-08-01T11:28:10;20.08;;;13.35;;
17858;SDS011;35426;30.698;104.050;2023-08-01T11:30:45;16.75;;;12.63;;
17858;SDS011;35426;30.698;104.050;2023-08-01T11:33:18;19.10;;;13.05;;
17858;SDS011;35426;30.698;104.050;2023-08-01T11:35:53;17.70;;;14.07;;
17858;SDS011;35426;30.698;104.050;2023-08-01T11:38:28;19.88;;;13.68;;
17858;SDS011;35426;30.698;104.050;2023-08-01T11:41:03;18.92;;;13.75;;
17858;SDS011;35426;30.698;104.050;2023-08-01T11:43:42;17.83;;;13.35;;
17858;SDS011;35426;30.698;104.050;2023-08-01T11:46:15;17.25;;;13.18;;
17858;SDS011;35426;30.698;104.050;2023-08-01T11:48:49;17.42;;;12.98;;
17858;SDS011;35426;30.698;104.050;2023-08-01T11:51:24;16.77;;;13.75;;
17858;SDS011;35426;30.698;104.050;2023-08-01T11:54:01;18.38;;;15.43;;
17858;SDS011;35426;30.698;104.050;2023-08-01T11:56:37;24.65;;;17.27;;
17858;SDS011;35426;30.698;104.050;2023-08-01T11:59:14;24.88;;;17.58;;
17858;SDS011;35426;30.698;104.050;2023-08-01T12:01:50;28.85;;;19.85;;
17858;SDS011;35426;30.698;104.050;2023-08-01T12:04:24;26.10;;;19.88;;
17858;SDS011;35426;30.698;104.050;2023-08-01T12:06:57;27.85;;;19.58;;
17858;SDS011;35426;30.698;104.050;2023-08-01T12:09:31;33.03;;;20.92;;
17858;SDS011;35426;30.698;104.050;2023-08-01T12:12:05;23.38;;;18.17;;
17858;SDS011;35426;30.698;104.050;2023-08-01T12:14:45;27.23;;;17.83;;
17858;SDS011;35426;30.698;104.050;2023-08-01T12:17:18;23.42;;;15.73;;
17858;SDS011;35426;30.698;104.050;2023-08-01T12:19:52;19.08;;;14.07;;
17858;SDS011;35426;30.698;104.050;2023-08-01T12:22:41;19.85;;;14.10;;
17858;SDS011;35426;30.698;104.050;2023-08-01T12:25:15;18.77;;;14.27;;
17858;SDS011;35426;30.698;104.050;2023-08-01T12:27:48;20.83;;;14.60;;
17858;SDS011;35426;30.698;104.050;2023-08-01T12:30:24;14.53;;;11.17;;
17858;SDS011;35426;30.698;104.050;2023-08-01T12:32:57;18.67;;;12.50;;
17858;SDS011;35426;30.698;104.050;2023-08-01T12:35:32;15.17;;;10.80;;
17858;SDS011;35426;30.698;104.050;2023-08-01T12:38:05;15.63;;;11.37;;
17858;SDS011;35426;30.698;104.050;2023-08-01T12:40:41;13.43;;;9.87;;
17858;SDS011;35426;30.698;104.050;2023-08-01T12:43:18;14.63;;;10.60;;
17858;SDS011;35426;30.698;104.050;2023-08-01T12:45:55;12.37;;;9.00;;
17858;SDS011;35426;30.698;104.050;2023-08-01T12:48:29;14.73;;;9.80;;
17858;SDS011;35426;30.698;104.050;2023-08-01T12:51:03;12.80;;;9.40;;
17858;SDS011;35426;30.698;104.050;2023-08-01T12:53:37;14.33;;;10.47;;
17858;SDS011;35426;30.698;104.050;2023-08-01T12:56:14;11.93;;;9.00;;
17858;SDS011;35426;30.698;104.050;2023-08-01T12:59:07;11.43;;;8.63;;
17858;SDS011;35426;30.698;104.050;2023-08-01T13:01:43;14.37;;;9.70;;
17858;SDS011;35426;30.698;104.050;2023-08-01T13:04:16;14.30;;;9.17;;
17858;SDS011;35426;30.698;104.050;2023-08-01T13:06:49;15.00;;;9.03;;
17858;SDS011;35426;30.698;104.050;2023-08-01T13:09:26;12.07;;;9.23;;
17858;SDS011;35426;30.698;104.050;2023-08-01T13:11:59;14.80;;;8.97;;
17858;SDS011;35426;30.698;104.050;2023-08-01T13:14:36;17.07;;;9.57;;
17858;SDS011;35426;30.698;104.050;2023-08-01T13:17:12;11.23;;;8.90;;
17858;SDS011;35426;30.698;104.050;2023-08-01T13:19:47;13.67;;;9.10;;
17858;SDS011;35426;30.698;104.050;2023-08-01T13:22:21;11.70;;;8.37;;
17858;SDS011;35426;30.698;104.050;2023-08-01T13:24:55;10.25;;;8.25;;
17858;SDS011;35426;30.698;104.050;2023-08-01T13:27:47;11.40;;;8.55;;
17858;SDS011;35426;30.698;104.050;2023-08-01T13:30:23;11.85;;;9.00;;
17858;SDS011;35426;30.698;104.050;2023-08-01T13:33:00;15.93;;;9.95;;
17858;SDS011;35426;30.698;104.050;2023-08-01T13:35:34;15.45;;;11.43;;
17858;SDS011;35426;30.698;104.050;2023-08-01T13:38:10;12.50;;;8.68;;
17858;SDS011;35426;30.698;104.050;2023-08-01T13:40:45;13.80;;;8.95;;
17858;SDS011;35426;30.698;104.050;2023-08-01T13:43:18;12.93;;;9.45;;
17858;SDS011;35426;30.698;104.050;2023-08-01T13:45:52;13.63;;;10.10;;
17858;SDS011;35426;30.698;104.050;2023-08-01T13:48:26;12.85;;;9.13;;
17858;SDS011;35426;30.698;104.050;2023-08-01T13:51:00;14.68;;;9.70;;
17858;SDS011;35426;30.698;104.050;2023-08-01T13:53:50;12.45;;;8.93;;
17858;SDS011;35426;30.698;104.050;2023-08-01T13:56:24;12.95;;;9.57;;
17858;SDS011;35426;30.698;104.050;2023-08-01T13:58:58;11.93;;;9.20;;
17858;SDS011;35426;30.698;104.050;2023-08-01T14:01:34;14.05;;;8.90;;
17858;SDS011;35426;30.698;104.050;2023-08-01T14:04:09;13.00;;;9.57;;
17858;SDS011;35426;30.698;104.050;2023-08-01T14:06:44;13.10;;;9.13;;
17858;SDS011;35426;30.698;104.050;2023-08-01T14:09:17;14.98;;;10.35;;
17858;SDS011;35426;30.698;104.050;2023-08-01T14:11:51;12.57;;;9.98;;
17858;SDS011;35426;30.698;104.050;2023-08-01T14:14:25;13.32;;;9.88;;
17858;SDS011;35426;30.698;104.050;2023-08-01T14:16:59;12.90;;;9.80;;
17858;SDS011;35426;30.698;104.050;2023-08-01T14:19:37;13.48;;;10.57;;
17858;SDS011;35426;30.698;104.050;2023-08-01T14:22:10;15.63;;;10.35;;
17858;SDS011;35426;30.698;104.050;2023-08-01T14:24:43;14.60;;;10.27;;
17858;SDS011;35426;30.698;104.050;2023-08-01T14:27:18;15.15;;;11.18;;
17858;SDS011;35426;30.698;104.050;2023-08-01T14:29:52;12.90;;;10.43;;
17858;SDS011;35426;30.698;104.050;2023-08-01T14:32:27;13.68;;;10.57;;
17858;SDS011;35426;30.698;104.050;2023-08-01T14:35:12;12.95;;;10.38;;
17858;SDS011;35426;30.698;104.050;2023-08-01T14:37:46;15.00;;;11.20;;
17858;SDS011;35426;30.698;104.050;2023-08-01T14:40:20;19.05;;;12.88;;
17858;SDS011;35426;30.698;104.050;2023-08-01T14:42:56;15.30;;;11.38;;
17858;SDS011;35426;30.698;104.050;2023-08-01T14:45:30;16.05;;;12.05;;
17858;SDS011;35426;30.698;104.050;2023-08-01T14:48:03;17.20;;;12.45;;